sensor_id;sensor_type;location;lat;lon;timestamp;P1;durP1;ratioP1;P2;durP2;ratioP2
70761;SDS011;58360;0.000;0.000;2023-04-29T00:00:25;44.97;;;23.15;;
70761;SDS011;58360;0.000;0.000;2023-04-29T00:02:51;35.33;;;20.10;;
70761;SDS011;58360;0.000;0.000;2023-04-29T00:05:17;47.75;;;25.20;;
70761;SDS011;58360;0.000;0.000;2023-04-29T00:07:42;53.95;;;25.25;;
70761;SDS011;58360;0.000;0.000;2023-04-29T00:10:08;49.05;;;24.90;;
70761;SDS011;58360;0.000;0.000;2023-04-29T00:12:38;45.67;;;24.50;;
70761;SDS011;58360;0.000;0.000;2023-04-29T00:15:05;46.67;;;26.55;;
70761;SDS011;58360;0.000;0.000;2023-04-29T00:17:33;42.85;;;25.17;;
70761;SDS011;58360;0.000;0.000;2023-04-29T00:19:59;48.42;;;23.38;;
70761;SDS011;58360;0.000;0.000;2023-04-29T00:22:25;49.38;;;27.30;;
70761;SDS011;58360;0.000;0.000;2023-04-29T00:24:53;45.10;;;23.40;;
70761;SDS011;58360;0.000;0.000;2023-04-29T00:27:18;45.10;;;26.63;;
70761;SDS011;58360;0.000;0.000;2023-04-29T00:29:44;47.95;;;26.63;;
70761;SDS011;58360;0.000;0.000;2023-04-29T00:32:09;43.10;;;26.90;;
70761;SDS011;58360;0.000;0.000;2023-04-29T00:34:35;40.88;;;24.02;;
70761;SDS011;58360;0.000;0.000;2023-04-29T00:37:05;40.63;;;25.05;;
70761;SDS011;58360;0.000;0.000;2023-04-29T00:39:33;46.50;;;26.65;;
70761;SDS011;58360;0.000;0.000;2023-04-29T00:42:02;44.60;;;27.08;;
70761;SDS011;58360;0.000;0.000;2023-04-29T00:44:28;42.85;;;25.52;;
70761;SDS011;58360;0.000;0.000;2023-04-29T00:46:53;48.25;;;27.15;;
70761;SDS011;58360;0.000;0.000;2023-04-29T00:49:19;45.50;;;26.23;;
70761;SDS011;58360;0.000;0.000;2023-04-29T00:51:45;45.88;;;26.88;;
70761;SDS011;58360;0.000;0.000;2023-04-29T00:54:12;47.00;;;28.77;;
70761;SDS011;58360;0.000;0.000;2023-04-29T00:56:38;46.00;;;25.77;;
70761;SDS011;58360;0.000;0.000;2023-04-29T00:59:07;41.42;;;24.95;;
70761;SDS011;58360;0.000;0.000;2023-04-29T01:01:34;43.60;;;24.25;;
70761;SDS011;58360;0.000;0.000;2023-04-29T01:04:00;44.33;;;24.20;;
70761;SDS011;58360;0.000;0.000;2023-04-29T01:06:45;43.15;;;25.77;;
70761;SDS011;58360;0.000;0.000;2023-04-29T01:15:17;40.20;;;25.30;;
70761;SDS011;58360;0.000;0.000;2023-04-29T01:17:50;40.92;;;24.67;;
70761;SDS011;58360;0.000;0.000;2023-04-29T01:20:29;44.33;;;26.63;;
70761;SDS011;58360;0.000;0.000;2023-04-29T01:22:56;41.83;;;26.02;;
70761;SDS011;58360;0.000;0.000;2023-04-29T01:25:22;32.08;;;19.55;;
70761;SDS011;58360;0.000;0.000;2023-04-29T01:30:48;29.83;;;17.98;;
70761;SDS011;58360;0.000;0.000;2023-04-29T01:46:26;34.28;;;21.63;;
70761;SDS011;58360;0.000;0.000;2023-04-29T01:48:53;36.88;;;21.23;;
70761;SDS011;58360;0.000;0.000;2023-04-29T01:51:19;34.10;;;22.13;;
70761;SDS011;58360;0.000;0.000;2023-04-29T01:53:45;31.95;;;19.27;;
70761;SDS011;58360;0.000;0.000;2023-04-29T01:56:10;31.10;;;19.60;;
70761;SDS011;58360;0.000;0.000;2023-04-29T01:58:36;27.13;;;16.00;;
70761;SDS011;58360;0.000;0.000;2023-04-29T02:01:02;30.08;;;19.00;;
70761;SDS011;58360;0.000;0.000;2023-04-29T02:03:27;32.70;;;20.27;;
70761;SDS011;58360;0.000;0.000;2023-04-29T02:05:53;37.88;;;23.02;;
70761;SDS011;58360;0.000;0.000;2023-04-29T02:08:19;34.30;;;22.67;;
70761;SDS011;58360;0.000;0.000;2023-04-29T02:10:51;38.78;;;22.60;;
70761;SDS011;58360;0.000;0.000;2023-04-29T02:13:20;33.40;;;22.98;;
70761;SDS011;58360;0.000;0.000;2023-04-29T02:15:46;31.17;;;20.02;;
70761;SDS011;58360;0.000;0.000;2023-04-29T02:18:12;33.28;;;20.85;;
70761;SDS011;58360;0.000;0.000;2023-04-29T02:20:38;24.15;;;15.98;;
70761;SDS011;58360;0.000;0.000;2023-04-29T02:23:03;33.25;;;20.67;;
70761;SDS011;58360;0.000;0.000;2023-04-29T02:25:33;34.10;;;19.80;;
70761;SDS011;58360;0.000;0.000;2023-04-29T02:27:58;31.33;;;20.73;;
70761;SDS011;58360;0.000;0.000;2023-04-29T02:30:24;35.17;;;22.67;;
70761;SDS011;58360;0.000;0.000;2023-04-29T02:32:50;32.13;;;21.10;;
70761;SDS011;58360;0.000;0.000;2023-04-29T02:35:17;34.75;;;21.63;;
70761;SDS011;58360;0.000;0.000;2023-04-29T02:37:42;32.08;;;21.00;;
70761;SDS011;58360;0.000;0.000;2023-04-29T02:40:09;30.45;;;17.60;;
70761;SDS011;58360;0.000;0.000;2023-04-29T02:42:35;37.30;;;21.45;;
70761;SDS011;58360;0.000;0.000;2023-04-29T02:45:01;35.95;;;21.05;;
70761;SDS011;58360;0.000;0.000;2023-04-29T02:47:28;41.47;;;20.90;;
70761;SDS011;58360;0.000;0.000;2023-04-29T02:49:54;43.67;;;24.45;;
70761;SDS011;58360;0.000;0.000;2023-04-29T02:52:19;43.15;;;22.55;;
70761;SDS011;58360;0.000;0.000;2023-04-29T02:54:45;47.88;;;27.25;;
70761;SDS011;58360;0.000;0.000;2023-04-29T02:57:11;50.78;;;28.63;;
70761;SDS011;58360;0.000;0.000;2023-04-29T02:59:39;55.92;;;28.38;;
70761;SDS011;58360;0.000;0.000;2023-04-29T03:02:05;43.00;;;22.65;;
70761;SDS011;58360;0.000;0.000;2023-04-29T03:04:31;54.28;;;28.90;;
70761;SDS011;58360;0.000;0.000;2023-04-29T03:06:57;50.50;;;26.60;;
70761;SDS011;58360;0.000;0.000;2023-04-29T03:09:25;51.70;;;28.65;;
70761;SDS011;58360;0.000;0.000;2023-04-29T03:11:51;52.17;;;28.52;;
70761;SDS011;58360;0.000;0.000;2023-04-29T03:14:17;54.17;;;28.88;;
70761;SDS011;58360;0.000;0.000;2023-04-29T03:16:43;53.80;;;29.92;;
70761;SDS011;58360;0.000;0.000;2023-04-29T03:19:08;52.97;;;26.58;;
70761;SDS011;58360;0.000;0.000;2023-04-29T03:21:34;55.90;;;27.98;;
70761;SDS011;58360;0.000;0.000;2023-04-29T03:24:00;56.08;;;29.83;;
70761;SDS011;58360;0.000;0.000;2023-04-29T03:26:25;46.42;;;25.60;;
70761;SDS011;58360;0.000;0.000;2023-04-29T03:28:51;49.20;;;27.77;;
70761;SDS011;58360;0.000;0.000;2023-04-29T03:31:17;50.78;;;28.38;;
70761;SDS011;58360;0.000;0.000;2023-04-29T03:33:44;42.80;;;24.63;;
70761;SDS011;58360;0.000;0.000;2023-04-29T03:36:10;49.75;;;27.63;;
70761;SDS011;58360;0.000;0.000;2023-04-29T03:38:37;51.90;;;28.20;;
70761;SDS011;58360;0.000;0.000;2023-04-29T03:41:02;42.58;;;22.25;;
70761;SDS011;58360;0.000;0.000;2023-04-29T03:43:29;53.05;;;27.50;;
70761;SDS011;58360;0.000;0.000;2023-04-29T03:45:55;50.80;;;27.50;;
70761;SDS011;58360;0.000;0.000;2023-04-29T03:48:27;48.40;;;26.00;;
70761;SDS011;58360;0.000;0.000;2023-04-29T03:50:52;54.53;;;27.40;;
70761;SDS011;58360;0.000;0.000;2023-04-29T03:53:18;47.53;;;27.15;;
70761;SDS011;58360;0.000;0.000;2023-04-29T03:55:44;46.35;;;26.13;;
70761;SDS011;58360;0.000;0.000;2023-04-29T03:58:10;51.45;;;26.63;;
70761;SDS011;58360;0.000;0.000;2023-04-29T04:00:36;49.35;;;25.45;;
70761;SDS011;58360;0.000;0.000;2023-04-29T04:03:01;36.95;;;22.33;;
70761;SDS011;58360;0.000;0.000;2023-04-29T04:05:27;48.15;;;26.67;;
70761;SDS011;58360;0.000;0.000;2023-04-29T04:07:53;35.75;;;21.23;;
70761;SDS011;58360;0.000;0.000;2023-04-29T04:10:19;40.53;;;22.75;;
70761;SDS011;58360;0.000;0.000;2023-04-29T04:12:44;45.53;;;24.42;;
70761;SDS011;58360;0.000;0.000;2023-04-29T04:15:11;42.42;;;24.40;;
70761;SDS011;58360;0.000;0.000;2023-04-29T04:17:37;37.63;;;24.27;;
70761;SDS011;58360;0.000;0.000;2023-04-29T04:20:03;39.67;;;23.98;;
70761;SDS011;58360;0.000;0.000;2023-04-29T04:22:29;39.53;;;25.00;;
70761;SDS011;58360;0.000;0.000;2023-04-29T04:24:55;44.28;;;24.88;;
70761;SDS011;58360;0.000;0.000;2023-04-29T04:27:23;39.58;;;22.55;;
70761;SDS011;58360;0.000;0.000;2023-04-29T04:29:52;47.28;;;27.42;;
70761;SDS011;58360;0.000;0.000;2023-04-29T04:32:19;42.38;;;24.20;;
70761;SDS011;58360;0.000;0.000;2023-04-29T04:34:46;53.83;;;28.85;;
70761;SDS011;58360;0.000;0.000;2023-04-29T04:37:12;46.15;;;26.40;;
70761;SDS011;58360;0.000;0.000;2023-04-29T04:39:38;47.15;;;26.35;;
70761;SDS011;58360;0.000;0.000;2023-04-29T04:42:03;37.67;;;22.38;;
70761;SDS011;58360;0.000;0.000;2023-04-29T04:44:29;45.63;;;25.40;;
70761;SDS011;58360;0.000;0.000;2023-04-29T04:46:55;45.80;;;26.48;;
70761;SDS011;58360;0.000;0.000;2023-04-29T04:49:22;46.17;;;24.38;;
70761;SDS011;58360;0.000;0.000;2023-04-29T04:51:51;39.13;;;23.17;;
70761;SDS011;58360;0.000;0.000;2023-04-29T04:54:17;37.85;;;23.17;;
70761;SDS011;58360;0.000;0.000;2023-04-29T04:56:43;36.83;;;22.20;;
70761;SDS011;58360;0.000;0.000;2023-04-29T04:59:09;42.55;;;21.88;;
70761;SDS011;58360;0.000;0.000;2023-04-29T05:01:35;38.47;;;21.42;;
70761;SDS011;58360;0.000;0.000;2023-04-29T05:04:00;33.30;;;19.33;;
70761;SDS011;58360;0.000;0.000;2023-04-29T05:06:27;39.78;;;21.33;;
70761;SDS011;58360;0.000;0.000;2023-04-29T05:08:52;28.20;;;18.20;;
70761;SDS011;58360;0.000;0.000;2023-04-29T05:11:19;30.80;;;18.90;;
70761;SDS011;58360;0.000;0.000;2023-04-29T05:13:46;39.25;;;21.42;;
70761;SDS011;58360;0.000;0.000;2023-04-29T05:16:11;36.42;;;24.05;;
70761;SDS011;58360;0.000;0.000;2023-04-29T05:18:37;46.00;;;24.50;;
70761;SDS011;58360;0.000;0.000;2023-04-29T05:21:03;36.38;;;20.73;;
70761;SDS011;58360;0.000;0.000;2023-04-29T05:23:29;34.28;;;22.60;;
70761;SDS011;58360;0.000;0.000;2023-04-29T05:25:55;32.42;;;21.38;;
70761;SDS011;58360;0.000;0.000;2023-04-29T05:28:20;34.83;;;21.55;;
70761;SDS011;58360;0.000;0.000;2023-04-29T05:30:49;33.00;;;21.15;;
70761;SDS011;58360;0.000;0.000;2023-04-29T05:33:15;30.65;;;20.63;;
70761;SDS011;58360;0.000;0.000;2023-04-29T05:35:41;38.55;;;22.90;;
70761;SDS011;58360;0.000;0.000;2023-04-29T05:38:07;35.22;;;23.80;;
70761;SDS011;58360;0.000;0.000;2023-04-29T05:40:32;33.05;;;19.90;;
70761;SDS011;58360;0.000;0.000;2023-04-29T05:42:58;33.75;;;21.92;;
70761;SDS011;58360;0.000;0.000;2023-04-29T05:45:24;33.50;;;21.27;;
70761;SDS011;58360;0.000;0.000;2023-04-29T05:47:50;32.55;;;22.90;;
70761;SDS011;58360;0.000;0.000;2023-04-29T05:50:15;35.90;;;24.02;;
70761;SDS011;58360;0.000;0.000;2023-04-29T05:52:41;33.47;;;22.77;;
70761;SDS011;58360;0.000;0.000;2023-04-29T05:55:07;35.35;;;24.35;;
70761;SDS011;58360;0.000;0.000;2023-04-29T05:57:33;34.95;;;24.70;;
70761;SDS011;58360;0.000;0.000;2023-04-29T05:59:58;37.17;;;25.15;;
70761;SDS011;58360;0.000;0.000;2023-04-29T06:02:25;32.30;;;22.08;;
70761;SDS011;58360;0.000;0.000;2023-04-29T06:04:51;33.50;;;21.95;;
70761;SDS011;58360;0.000;0.000;2023-04-29T06:07:16;34.92;;;22.65;;
70761;SDS011;58360;0.000;0.000;2023-04-29T06:09:43;36.88;;;23.15;;
70761;SDS011;58360;0.000;0.000;2023-04-29T06:12:09;38.88;;;22.98;;
70761;SDS011;58360;0.000;0.000;2023-04-29T06:14:35;31.40;;;23.35;;
70761;SDS011;58360;0.000;0.000;2023-04-29T06:17:00;32.65;;;22.70;;
70761;SDS011;58360;0.000;0.000;2023-04-29T06:19:26;34.45;;;22.15;;
70761;SDS011;58360;0.000;0.000;2023-04-29T06:21:52;35.97;;;23.88;;
70761;SDS011;58360;0.000;0.000;2023-04-29T06:24:17;37.30;;;26.13;;
70761;SDS011;58360;0.000;0.000;2023-04-29T06:26:43;39.42;;;24.35;;
70761;SDS011;58360;0.000;0.000;2023-04-29T06:29:09;36.47;;;24.05;;
70761;SDS011;58360;0.000;0.000;2023-04-29T06:31:35;34.38;;;23.92;;
70761;SDS011;58360;0.000;0.000;2023-04-29T06:34:00;39.42;;;22.35;;
70761;SDS011;58360;0.000;0.000;2023-04-29T06:36:29;32.38;;;22.88;;
70761;SDS011;58360;0.000;0.000;2023-04-29T06:38:56;39.85;;;23.10;;
70761;SDS011;58360;0.000;0.000;2023-04-29T06:41:21;39.65;;;24.80;;
70761;SDS011;58360;0.000;0.000;2023-04-29T06:43:51;35.70;;;23.65;;
70761;SDS011;58360;0.000;0.000;2023-04-29T06:46:16;40.35;;;24.33;;
70761;SDS011;58360;0.000;0.000;2023-04-29T06:48:42;39.28;;;25.73;;
70761;SDS011;58360;0.000;0.000;2023-04-29T06:51:08;34.58;;;24.27;;
70761;SDS011;58360;0.000;0.000;2023-04-29T06:53:33;38.13;;;25.63;;
70761;SDS011;58360;0.000;0.000;2023-04-29T06:55:59;38.75;;;25.08;;
70761;SDS011;58360;0.000;0.000;2023-04-29T06:58:25;39.95;;;25.02;;
70761;SDS011;58360;0.000;0.000;2023-04-29T07:00:50;38.40;;;24.42;;
70761;SDS011;58360;0.000;0.000;2023-04-29T07:03:17;33.92;;;23.08;;
70761;SDS011;58360;0.000;0.000;2023-04-29T07:05:42;30.65;;;20.75;;
70761;SDS011;58360;0.000;0.000;2023-04-29T07:08:12;34.67;;;22.38;;
70761;SDS011;58360;0.000;0.000;2023-04-29T07:10:38;29.00;;;20.67;;
70761;SDS011;58360;0.000;0.000;2023-04-29T07:13:05;33.45;;;22.08;;
70761;SDS011;58360;0.000;0.000;2023-04-29T07:15:34;33.50;;;20.75;;
70761;SDS011;58360;0.000;0.000;2023-04-29T07:18:10;33.90;;;21.05;;
70761;SDS011;58360;0.000;0.000;2023-04-29T07:20:36;36.95;;;22.95;;
70761;SDS011;58360;0.000;0.000;2023-04-29T07:23:01;36.08;;;22.42;;
70761;SDS011;58360;0.000;0.000;2023-04-29T07:25:27;35.30;;;21.67;;
70761;SDS011;58360;0.000;0.000;2023-04-29T07:27:56;34.25;;;21.13;;
70761;SDS011;58360;0.000;0.000;2023-04-29T07:30:21;33.20;;;21.70;;
70761;SDS011;58360;0.000;0.000;2023-04-29T07:32:48;33.35;;;20.77;;
70761;SDS011;58360;0.000;0.000;2023-04-29T07:35:14;29.52;;;19.70;;
70761;SDS011;58360;0.000;0.000;2023-04-29T07:37:42;40.30;;;21.30;;
70761;SDS011;58360;0.000;0.000;2023-04-29T07:40:09;29.45;;;17.98;;
70761;SDS011;58360;0.000;0.000;2023-04-29T07:42:38;26.00;;;16.88;;
70761;SDS011;58360;0.000;0.000;2023-04-29T07:45:04;33.85;;;18.73;;
70761;SDS011;58360;0.000;0.000;2023-04-29T07:47:30;29.00;;;16.83;;
70761;SDS011;58360;0.000;0.000;2023-04-29T07:49:55;31.63;;;16.00;;
70761;SDS011;58360;0.000;0.000;2023-04-29T07:52:21;34.60;;;16.33;;
70761;SDS011;58360;0.000;0.000;2023-04-29T07:54:47;32.47;;;18.77;;
70761;SDS011;58360;0.000;0.000;2023-04-29T07:57:13;28.65;;;16.63;;
70761;SDS011;58360;0.000;0.000;2023-04-29T07:59:43;29.65;;;17.90;;
70761;SDS011;58360;0.000;0.000;2023-04-29T08:02:08;31.40;;;18.25;;
70761;SDS011;58360;0.000;0.000;2023-04-29T08:04:38;29.98;;;18.67;;
70761;SDS011;58360;0.000;0.000;2023-04-29T08:07:06;25.67;;;16.80;;
70761;SDS011;58360;0.000;0.000;2023-04-29T08:09:32;25.77;;;17.48;;
70761;SDS011;58360;0.000;0.000;2023-04-29T08:12:04;25.98;;;15.77;;
70761;SDS011;58360;0.000;0.000;2023-04-29T08:14:33;26.77;;;15.95;;
70761;SDS011;58360;0.000;0.000;2023-04-29T08:17:02;27.50;;;16.20;;
70761;SDS011;58360;0.000;0.000;2023-04-29T08:19:27;23.67;;;15.15;;
70761;SDS011;58360;0.000;0.000;2023-04-29T08:21:53;28.35;;;16.58;;
70761;SDS011;58360;0.000;0.000;2023-04-29T08:24:19;26.85;;;15.95;;
70761;SDS011;58360;0.000;0.000;2023-04-29T08:26:51;26.02;;;15.73;;
70761;SDS011;58360;0.000;0.000;2023-04-29T08:29:17;26.80;;;16.60;;
70761;SDS011;58360;0.000;0.000;2023-04-29T08:31:43;27.08;;;15.90;;
70761;SDS011;58360;0.000;0.000;2023-04-29T08:34:09;24.58;;;15.93;;
70761;SDS011;58360;0.000;0.000;2023-04-29T08:36:38;27.70;;;15.57;;
70761;SDS011;58360;0.000;0.000;2023-04-29T08:39:07;21.75;;;15.00;;
70761;SDS011;58360;0.000;0.000;2023-04-29T08:41:32;25.95;;;15.52;;
70761;SDS011;58360;0.000;0.000;2023-04-29T08:43:58;22.02;;;15.48;;
70761;SDS011;58360;0.000;0.000;2023-04-29T08:46:25;25.35;;;16.10;;
70761;SDS011;58360;0.000;0.000;2023-04-29T08:48:53;23.63;;;15.13;;
70761;SDS011;58360;0.000;0.000;2023-04-29T08:51:25;24.58;;;14.75;;
70761;SDS011;58360;0.000;0.000;2023-04-29T08:53:52;21.45;;;14.50;;
70761;SDS011;58360;0.000;0.000;2023-04-29T08:56:17;19.08;;;13.05;;
70761;SDS011;58360;0.000;0.000;2023-04-29T08:58:48;27.75;;;14.35;;
70761;SDS011;58360;0.000;0.000;2023-04-29T09:01:18;20.35;;;13.10;;
70761;SDS011;58360;0.000;0.000;2023-04-29T09:04:13;22.45;;;13.80;;
70761;SDS011;58360;0.000;0.000;2023-04-29T09:06:49;18.33;;;12.15;;
70761;SDS011;58360;0.000;0.000;2023-04-29T09:09:16;19.27;;;11.43;;
70761;SDS011;58360;0.000;0.000;2023-04-29T09:11:46;22.63;;;13.23;;
70761;SDS011;58360;0.000;0.000;2023-04-29T09:14:15;20.63;;;12.05;;
70761;SDS011;58360;0.000;0.000;2023-04-29T09:16:40;20.00;;;11.70;;
70761;SDS011;58360;0.000;0.000;2023-04-29T09:19:06;21.92;;;11.98;;
70761;SDS011;58360;0.000;0.000;2023-04-29T09:21:32;19.17;;;11.07;;
70761;SDS011;58360;0.000;0.000;2023-04-29T09:24:00;19.50;;;11.07;;
70761;SDS011;58360;0.000;0.000;2023-04-29T09:26:27;18.15;;;10.90;;
70761;SDS011;58360;0.000;0.000;2023-04-29T09:29:09;17.90;;;11.38;;
70761;SDS011;58360;0.000;0.000;2023-04-29T09:31:39;17.55;;;10.82;;
70761;SDS011;58360;0.000;0.000;2023-04-29T09:34:06;21.40;;;11.52;;
70761;SDS011;58360;0.000;0.000;2023-04-29T09:36:39;17.52;;;9.70;;
70761;SDS011;58360;0.000;0.000;2023-04-29T09:39:15;17.23;;;11.10;;
70761;SDS011;58360;0.000;0.000;2023-04-29T09:44:17;16.02;;;10.93;;
70761;SDS011;58360;0.000;0.000;2023-04-29T09:46:57;15.85;;;10.23;;
70761;SDS011;58360;0.000;0.000;2023-04-29T09:49:31;15.20;;;9.60;;
70761;SDS011;58360;0.000;0.000;2023-04-29T09:52:03;15.90;;;10.43;;
70761;SDS011;58360;0.000;0.000;2023-04-29T09:54:41;18.05;;;10.68;;
70761;SDS011;58360;0.000;0.000;2023-04-29T09:57:11;20.00;;;11.20;;
70761;SDS011;58360;0.000;0.000;2023-04-29T09:59:40;15.82;;;9.88;;
70761;SDS011;58360;0.000;0.000;2023-04-29T10:02:09;15.68;;;10.00;;
70761;SDS011;58360;0.000;0.000;2023-04-29T10:04:46;22.90;;;9.88;;
70761;SDS011;58360;0.000;0.000;2023-04-29T10:07:21;15.95;;;10.10;;
70761;SDS011;58360;0.000;0.000;2023-04-29T10:09:47;17.75;;;8.77;;
70761;SDS011;58360;0.000;0.000;2023-04-29T10:12:14;17.05;;;10.23;;
70761;SDS011;58360;0.000;0.000;2023-04-29T10:14:42;14.90;;;10.65;;
70761;SDS011;58360;0.000;0.000;2023-04-29T10:17:19;20.35;;;9.25;;
70761;SDS011;58360;0.000;0.000;2023-04-29T10:19:59;12.20;;;8.48;;
70761;SDS011;58360;0.000;0.000;2023-04-29T10:22:32;22.08;;;11.45;;
70761;SDS011;58360;0.000;0.000;2023-04-29T10:25:01;16.23;;;8.48;;
70761;SDS011;58360;0.000;0.000;2023-04-29T10:27:30;13.68;;;9.30;;
70761;SDS011;58360;0.000;0.000;2023-04-29T10:29:58;13.80;;;9.00;;
70761;SDS011;58360;0.000;0.000;2023-04-29T10:32:26;15.05;;;9.40;;
70761;SDS011;58360;0.000;0.000;2023-04-29T10:34:54;17.52;;;8.65;;
70761;SDS011;58360;0.000;0.000;2023-04-29T10:37:20;10.90;;;6.68;;
70761;SDS011;58360;0.000;0.000;2023-04-29T10:42:48;15.55;;;8.60;;
70761;SDS011;58360;0.000;0.000;2023-04-29T10:53:07;14.68;;;8.73;;
70761;SDS011;58360;0.000;0.000;2023-04-29T10:55:36;14.57;;;8.50;;
70761;SDS011;58360;0.000;0.000;2023-04-29T10:58:02;12.20;;;7.95;;
70761;SDS011;58360;0.000;0.000;2023-04-29T11:00:30;13.48;;;8.75;;
70761;SDS011;58360;0.000;0.000;2023-04-29T11:03:01;14.15;;;9.85;;
70761;SDS011;58360;0.000;0.000;2023-04-29T11:08:20;12.00;;;8.57;;
70761;SDS011;58360;0.000;0.000;2023-04-29T11:10:55;13.80;;;9.02;;
70761;SDS011;58360;0.000;0.000;2023-04-29T11:13:29;13.07;;;8.68;;
70761;SDS011;58360;0.000;0.000;2023-04-29T11:16:06;12.52;;;8.30;;
70761;SDS011;58360;0.000;0.000;2023-04-29T11:21:35;13.10;;;8.13;;
70761;SDS011;58360;0.000;0.000;2023-04-29T11:24:02;11.13;;;7.65;;
70761;SDS011;58360;0.000;0.000;2023-04-29T11:26:30;14.32;;;8.25;;
70761;SDS011;58360;0.000;0.000;2023-04-29T11:28:56;13.68;;;7.35;;
70761;SDS011;58360;0.000;0.000;2023-04-29T11:31:29;12.48;;;7.90;;
70761;SDS011;58360;0.000;0.000;2023-04-29T11:33:56;8.95;;;5.10;;
70761;SDS011;58360;0.000;0.000;2023-04-29T11:36:22;12.93;;;8.43;;
70761;SDS011;58360;0.000;0.000;2023-04-29T11:38:51;12.75;;;7.88;;
70761;SDS011;58360;0.000;0.000;2023-04-29T11:41:17;11.18;;;6.53;;
70761;SDS011;58360;0.000;0.000;2023-04-29T11:43:46;14.00;;;8.23;;
70761;SDS011;58360;0.000;0.000;2023-04-29T11:46:19;10.02;;;5.35;;
70761;SDS011;58360;0.000;0.000;2023-04-29T11:48:46;10.48;;;6.07;;
70761;SDS011;58360;0.000;0.000;2023-04-29T11:51:12;9.93;;;6.65;;
70761;SDS011;58360;0.000;0.000;2023-04-29T11:53:39;9.32;;;5.50;;
70761;SDS011;58360;0.000;0.000;2023-04-29T11:56:05;13.02;;;7.75;;
70761;SDS011;58360;0.000;0.000;2023-04-29T11:58:33;11.95;;;7.93;;
70761;SDS011;58360;0.000;0.000;2023-04-29T12:00:58;12.98;;;6.38;;
70761;SDS011;58360;0.000;0.000;2023-04-29T12:03:25;13.80;;;7.63;;
70761;SDS011;58360;0.000;0.000;2023-04-29T12:08:20;10.35;;;6.55;;
70761;SDS011;58360;0.000;0.000;2023-04-29T12:10:51;17.90;;;8.32;;
70761;SDS011;58360;0.000;0.000;2023-04-29T12:13:18;12.57;;;8.10;;
70761;SDS011;58360;0.000;0.000;2023-04-29T12:15:45;14.45;;;8.82;;
70761;SDS011;58360;0.000;0.000;2023-04-29T12:18:12;15.82;;;8.40;;
70761;SDS011;58360;0.000;0.000;2023-04-29T12:20:38;12.20;;;8.13;;
70761;SDS011;58360;0.000;0.000;2023-04-29T12:23:11;12.40;;;8.13;;
70761;SDS011;58360;0.000;0.000;2023-04-29T12:25:38;12.38;;;8.57;;
70761;SDS011;58360;0.000;0.000;2023-04-29T12:28:13;13.00;;;7.70;;
70761;SDS011;58360;0.000;0.000;2023-04-29T12:30:40;14.50;;;8.45;;
70761;SDS011;58360;0.000;0.000;2023-04-29T12:33:07;10.50;;;7.25;;
70761;SDS011;58360;0.000;0.000;2023-04-29T12:35:34;13.20;;;9.70;;
70761;SDS011;58360;0.000;0.000;2023-04-29T12:38:01;13.13;;;9.13;;
70761;SDS011;58360;0.000;0.000;2023-04-29T12:40:27;12.27;;;8.25;;
70761;SDS011;58360;0.000;0.000;2023-04-29T12:42:53;16.05;;;9.95;;
70761;SDS011;58360;0.000;0.000;2023-04-29T12:45:25;11.73;;;7.63;;
70761;SDS011;58360;0.000;0.000;2023-04-29T12:47:56;11.27;;;6.20;;
70761;SDS011;58360;0.000;0.000;2023-04-29T12:50:34;12.90;;;8.15;;
70761;SDS011;58360;0.000;0.000;2023-04-29T12:53:05;12.57;;;7.85;;
70761;SDS011;58360;0.000;0.000;2023-04-29T12:55:33;10.45;;;5.97;;
70761;SDS011;58360;0.000;0.000;2023-04-29T12:58:05;12.15;;;8.18;;
70761;SDS011;58360;0.000;0.000;2023-04-29T13:00:33;12.45;;;8.35;;
70761;SDS011;58360;0.000;0.000;2023-04-29T13:02:59;13.02;;;7.70;;
70761;SDS011;58360;0.000;0.000;2023-04-29T13:05:25;12.48;;;8.25;;
70761;SDS011;58360;0.000;0.000;2023-04-29T13:07:51;12.38;;;8.43;;
70761;SDS011;58360;0.000;0.000;2023-04-29T13:10:17;13.25;;;8.45;;
70761;SDS011;58360;0.000;0.000;2023-04-29T13:12:42;14.90;;;9.02;;
70761;SDS011;58360;0.000;0.000;2023-04-29T13:15:08;12.23;;;7.95;;
70761;SDS011;58360;0.000;0.000;2023-04-29T13:17:35;13.38;;;8.10;;
70761;SDS011;58360;0.000;0.000;2023-04-29T13:20:04;12.20;;;8.43;;
70761;SDS011;58360;0.000;0.000;2023-04-29T13:22:30;17.30;;;9.13;;
70761;SDS011;58360;0.000;0.000;2023-04-29T13:24:56;16.17;;;7.90;;
70761;SDS011;58360;0.000;0.000;2023-04-29T13:27:22;10.50;;;6.93;;
70761;SDS011;58360;0.000;0.000;2023-04-29T13:29:48;14.30;;;7.50;;
70761;SDS011;58360;0.000;0.000;2023-04-29T13:32:14;12.80;;;7.00;;
70761;SDS011;58360;0.000;0.000;2023-04-29T13:34:40;11.55;;;7.68;;
70761;SDS011;58360;0.000;0.000;2023-04-29T13:37:09;11.25;;;6.40;;
70761;SDS011;58360;0.000;0.000;2023-04-29T13:39:38;14.18;;;9.07;;
70761;SDS011;58360;0.000;0.000;2023-04-29T13:42:03;13.57;;;7.72;;
70761;SDS011;58360;0.000;0.000;2023-04-29T13:44:29;10.82;;;7.53;;
70761;SDS011;58360;0.000;0.000;2023-04-29T13:46:55;13.68;;;8.07;;
70761;SDS011;58360;0.000;0.000;2023-04-29T13:49:21;13.10;;;7.63;;
70761;SDS011;58360;0.000;0.000;2023-04-29T13:51:47;19.65;;;12.35;;
70761;SDS011;58360;0.000;0.000;2023-04-29T13:54:12;16.48;;;9.50;;
70761;SDS011;58360;0.000;0.000;2023-04-29T13:56:38;13.55;;;8.75;;
70761;SDS011;58360;0.000;0.000;2023-04-29T13:59:03;13.52;;;9.18;;
70761;SDS011;58360;0.000;0.000;2023-04-29T14:01:29;17.80;;;8.63;;
70761;SDS011;58360;0.000;0.000;2023-04-29T14:03:55;11.70;;;8.05;;
70761;SDS011;58360;0.000;0.000;2023-04-29T14:06:21;16.45;;;10.00;;
70761;SDS011;58360;0.000;0.000;2023-04-29T14:08:46;26.45;;;13.80;;
70761;SDS011;58360;0.000;0.000;2023-04-29T14:11:12;31.30;;;16.35;;
70761;SDS011;58360;0.000;0.000;2023-04-29T14:13:38;26.35;;;13.80;;
70761;SDS011;58360;0.000;0.000;2023-04-29T14:16:03;28.67;;;17.17;;
70761;SDS011;58360;0.000;0.000;2023-04-29T14:18:30;21.88;;;12.23;;
70761;SDS011;58360;0.000;0.000;2023-04-29T14:20:56;15.68;;;9.45;;
70761;SDS011;58360;0.000;0.000;2023-04-29T14:23:23;15.95;;;9.43;;
70761;SDS011;58360;0.000;0.000;2023-04-29T14:25:49;60.20;;;31.60;;
70761;SDS011;58360;0.000;0.000;2023-04-29T14:28:15;30.15;;;15.43;;
70761;SDS011;58360;0.000;0.000;2023-04-29T14:30:41;37.67;;;19.85;;
70761;SDS011;58360;0.000;0.000;2023-04-29T14:33:07;22.85;;;11.93;;
70761;SDS011;58360;0.000;0.000;2023-04-29T14:35:33;18.60;;;10.55;;
70761;SDS011;58360;0.000;0.000;2023-04-29T14:37:59;20.85;;;10.88;;
70761;SDS011;58360;0.000;0.000;2023-04-29T14:40:25;10.30;;;6.88;;
70761;SDS011;58360;0.000;0.000;2023-04-29T14:42:50;21.55;;;9.60;;
70761;SDS011;58360;0.000;0.000;2023-04-29T14:45:16;38.17;;;20.48;;
70761;SDS011;58360;0.000;0.000;2023-04-29T14:47:42;38.95;;;20.38;;
70761;SDS011;58360;0.000;0.000;2023-04-29T14:50:08;26.45;;;14.52;;
70761;SDS011;58360;0.000;0.000;2023-04-29T14:52:34;18.25;;;10.82;;
70761;SDS011;58360;0.000;0.000;2023-04-29T14:55:00;17.50;;;9.18;;
70761;SDS011;58360;0.000;0.000;2023-04-29T14:57:26;15.20;;;8.27;;
70761;SDS011;58360;0.000;0.000;2023-04-29T14:59:51;30.83;;;16.05;;
70761;SDS011;58360;0.000;0.000;2023-04-29T15:02:17;27.67;;;15.55;;
70761;SDS011;58360;0.000;0.000;2023-04-29T15:04:43;13.93;;;8.40;;
70761;SDS011;58360;0.000;0.000;2023-04-29T15:07:13;16.05;;;8.10;;
70761;SDS011;58360;0.000;0.000;2023-04-29T15:09:39;22.13;;;13.23;;
70761;SDS011;58360;0.000;0.000;2023-04-29T15:12:06;14.32;;;8.85;;
70761;SDS011;58360;0.000;0.000;2023-04-29T15:14:32;17.30;;;11.30;;
70761;SDS011;58360;0.000;0.000;2023-04-29T15:17:01;18.85;;;10.82;;
70761;SDS011;58360;0.000;0.000;2023-04-29T15:19:27;17.10;;;8.95;;
70761;SDS011;58360;0.000;0.000;2023-04-29T15:21:52;18.60;;;9.75;;